sensor_id;sensor_type;location;lat;lon;timestamp;pressure;altitude;pressure_sealevel;temperature;humidity
14383;BME280;7275;50.328;8.720;2023-06-22T00:00:12;99744.25;;;29.19;39.12
14383;BME280;7275;50.328;8.720;2023-06-22T00:02:39;99729.94;;;29.17;39.34
14383;BME280;7275;50.328;8.720;2023-06-22T00:05:07;99736.06;;;29.19;39.38
14383;BME280;7275;50.328;8.720;2023-06-22T00:07:35;99719.25;;;29.16;39.30
14383;BME280;7275;50.328;8.720;2023-06-22T00:10:04;99714.97;;;29.13;39.16
14383;BME280;7275;50.328;8.720;2023-06-22T00:12:32;99707.13;;;29.10;39.59
14383;BME280;7275;50.328;8.720;2023-06-22T00:14:59;99712.06;;;29.07;39.41
14383;BME280;7275;50.328;8.720;2023-06-22T00:17:27;99729.59;;;29.04;39.35
14383;BME280;7275;50.328;8.720;2023-06-22T00:19:55;99729.28;;;28.99;39.35
14383;BME280;7275;50.328;8.720;2023-06-22T00:22:25;99741.38;;;28.97;39.41
14383;BME280;7275;50.328;8.720;2023-06-22T00:24:55;99748.88;;;28.95;39.46
14383;BME280;7275;50.328;8.720;2023-06-22T00:27:24;99754.31;;;28.95;39.49
14383;BME280;7275;50.328;8.720;2023-06-22T00:29:52;99769.97;;;28.93;39.47
14383;BME280;7275;50.328;8.720;2023-06-22T00:32:19;99783.06;;;28.89;40.06
14383;BME280;7275;50.328;8.720;2023-06-22T00:34:47;99785.97;;;28.88;40.14
14383;BME280;7275;50.328;8.720;2023-06-22T00:37:15;99791.91;;;28.83;40.22
14383;BME280;7275;50.328;8.720;2023-06-22T00:39:42;99807.41;;;28.83;40.15
14383;BME280;7275;50.328;8.720;2023-06-22T00:42:10;99820.34;;;28.81;39.87
14383;BME280;7275;50.328;8.720;2023-06-22T00:44:39;99827.97;;;28.77;40.04
14383;BME280;7275;50.328;8.720;2023-06-22T00:47:06;99837.50;;;28.73;40.00
14383;BME280;7275;50.328;8.720;2023-06-22T00:49:34;99830.38;;;28.72;40.12
14383;BME280;7275;50.328;8.720;2023-06-22T00:52:02;99831.38;;;28.71;40.42
14383;BME280;7275;50.328;8.720;2023-06-22T00:54:30;99840.22;;;28.73;40.54
14383;BME280;7275;50.328;8.720;2023-06-22T00:56:58;99840.91;;;28.75;40.16
14383;BME280;7275;50.328;8.720;2023-06-22T00:59:26;99831.38;;;28.79;40.36
14383;BME280;7275;50.328;8.720;2023-06-22T01:01:55;99844.66;;;28.82;40.19
14383;BME280;7275;50.328;8.720;2023-06-22T01:04:25;99842.44;;;28.86;39.90
14383;BME280;7275;50.328;8.720;2023-06-22T01:07:20;99846.72;;;28.88;40.11
14383;BME280;7275;50.328;8.720;2023-06-22T01:09:55;99856.75;;;28.88;40.39
14383;BME280;7275;50.328;8.720;2023-06-22T01:12:25;99868.31;;;28.90;40.05
14383;BME280;7275;50.328;8.720;2023-06-22T01:15:02;99873.75;;;28.90;40.52
14383;BME280;7275;50.328;8.720;2023-06-22T01:17:34;99882.59;;;28.92;40.12
14383;BME280;7275;50.328;8.720;2023-06-22T01:20:03;99891.81;;;28.91;40.10
14383;BME280;7275;50.328;8.720;2023-06-22T01:22:41;99901.16;;;28.88;40.23
14383;BME280;7275;50.328;8.720;2023-06-22T01:25:19;99914.94;;;28.87;40.30
14383;BME280;7275;50.328;8.720;2023-06-22T01:27:55;99924.47;;;28.83;40.30
14383;BME280;7275;50.328;8.720;2023-06-22T01:30:29;99938.91;;;28.75;41.04
14383;BME280;7275;50.328;8.720;2023-06-22T01:33:00;99939.91;;;28.66;41.15
14383;BME280;7275;50.328;8.720;2023-06-22T01:35:30;99944.47;;;28.58;41.25
14383;BME280;7275;50.328;8.720;2023-06-22T01:37:58;99938.13;;;28.49;41.52
14383;BME280;7275;50.328;8.720;2023-06-22T01:40:27;99917.84;;;28.43;41.38
14383;BME280;7275;50.328;8.720;2023-06-22T01:42:56;99884.69;;;28.40;42.14
14383;BME280;7275;50.328;8.720;2023-06-22T01:45:24;99860.22;;;28.40;42.49
14383;BME280;7275;50.328;8.720;2023-06-22T01:47:53;99858.19;;;28.42;42.69
14383;BME280;7275;50.328;8.720;2023-06-22T01:50:21;99846.97;;;28.45;42.70
14383;BME280;7275;50.328;8.720;2023-06-22T01:52:49;99847.66;;;28.47;43.27
14383;BME280;7275;50.328;8.720;2023-06-22T01:55:16;99825.91;;;28.47;42.78
14383;BME280;7275;50.328;8.720;2023-06-22T01:57:44;99813.97;;;28.48;43.37
14383;BME280;7275;50.328;8.720;2023-06-22T02:00:14;99808.72;;;28.46;43.19
14383;BME280;7275;50.328;8.720;2023-06-22T02:02:53;99806.50;;;28.42;43.47
14383;BME280;7275;50.328;8.720;2023-06-22T02:05:23;99801.41;;;28.39;43.87
14383;BME280;7275;50.328;8.720;2023-06-22T02:07:58;99796.97;;;28.38;43.67
14383;BME280;7275;50.328;8.720;2023-06-22T02:10:28;99809.03;;;28.35;43.46
14383;BME280;7275;50.328;8.720;2023-06-22T02:12:57;99817.53;;;28.32;43.60
14383;BME280;7275;50.328;8.720;2023-06-22T02:15:26;99827.75;;;28.30;43.85
14383;BME280;7275;50.328;8.720;2023-06-22T02:17:55;99832.13;;;28.23;43.80
14383;BME280;7275;50.328;8.720;2023-06-22T02:20:23;99838.94;;;28.19;43.74
14383;BME280;7275;50.328;8.720;2023-06-22T02:22:51;99839.25;;;28.16;44.03
14383;BME280;7275;50.328;8.720;2023-06-22T02:25:19;99833.81;;;28.16;44.50
14383;BME280;7275;50.328;8.720;2023-06-22T02:27:47;99826.84;;;28.14;44.63
14383;BME280;7275;50.328;8.720;2023-06-22T02:30:15;99804.41;;;28.12;44.63
14383;BME280;7275;50.328;8.720;2023-06-22T02:32:42;99781.13;;;28.09;44.70
14383;BME280;7275;50.328;8.720;2023-06-22T02:35:11;99778.59;;;28.08;44.18
14383;BME280;7275;50.328;8.720;2023-06-22T02:37:40;99767.84;;;28.06;44.90
14383;BME280;7275;50.328;8.720;2023-06-22T02:40:09;99769.75;;;28.06;44.62
14383;BME280;7275;50.328;8.720;2023-06-22T02:42:37;99784.16;;;28.06;44.83
14383;BME280;7275;50.328;8.720;2023-06-22T02:45:05;99792.50;;;28.05;44.39
14383;BME280;7275;50.328;8.720;2023-06-22T02:47:33;99789.25;;;28.01;44.85
14383;BME280;7275;50.328;8.720;2023-06-22T02:50:00;99805.03;;;27.98;44.83
14383;BME280;7275;50.328;8.720;2023-06-22T02:52:29;99807.03;;;27.96;44.58
14383;BME280;7275;50.328;8.720;2023-06-22T02:54:57;99805.66;;;27.92;45.04
14383;BME280;7275;50.328;8.720;2023-06-22T02:57:24;99813.13;;;27.90;44.99
14383;BME280;7275;50.328;8.720;2023-06-22T02:59:52;99825.19;;;27.87;44.67
14383;BME280;7275;50.328;8.720;2023-06-22T03:02:19;99809.03;;;27.86;44.74
14383;BME280;7275;50.328;8.720;2023-06-22T03:04:48;99778.28;;;27.85;44.84
14383;BME280;7275;50.328;8.720;2023-06-22T03:07:16;99768.75;;;27.81;44.82
14383;BME280;7275;50.328;8.720;2023-06-22T03:09:46;99767.41;;;27.77;45.37
14383;BME280;7275;50.328;8.720;2023-06-22T03:12:13;99772.16;;;27.75;45.45
14383;BME280;7275;50.328;8.720;2023-06-22T03:14:41;99776.72;;;27.75;45.29
14383;BME280;7275;50.328;8.720;2023-06-22T03:17:09;99783.19;;;27.74;45.30
14383;BME280;7275;50.328;8.720;2023-06-22T03:19:37;99787.94;;;27.72;44.97
14383;BME280;7275;50.328;8.720;2023-06-22T03:22:05;99787.06;;;27.71;44.97
14383;BME280;7275;50.328;8.720;2023-06-22T03:24:33;99777.38;;;27.68;45.09
14383;BME280;7275;50.328;8.720;2023-06-22T03:27:02;99766.00;;;27.65;45.35
14383;BME280;7275;50.328;8.720;2023-06-22T03:29:31;99767.16;;;27.62;45.02
14383;BME280;7275;50.328;8.720;2023-06-22T03:31:58;99758.34;;;27.60;45.12
14383;BME280;7275;50.328;8.720;2023-06-22T03:34:26;99747.63;;;27.59;45.50
14383;BME280;7275;50.328;8.720;2023-06-22T03:36:54;99743.38;;;27.56;45.57
14383;BME280;7275;50.328;8.720;2023-06-22T03:39:21;99753.72;;;27.53;45.54
14383;BME280;7275;50.328;8.720;2023-06-22T03:41:49;99758.78;;;27.48;45.57
14383;BME280;7275;50.328;8.720;2023-06-22T03:44:18;99748.41;;;27.43;46.11
14383;BME280;7275;50.328;8.720;2023-06-22T03:46:45;99753.84;;;27.43;45.72
14383;BME280;7275;50.328;8.720;2023-06-22T03:49:13;99758.09;;;27.46;46.00
14383;BME280;7275;50.328;8.720;2023-06-22T03:51:40;99761.50;;;27.48;45.80
14383;BME280;7275;50.328;8.720;2023-06-22T03:54:08;99756.63;;;27.51;45.91
14383;BME280;7275;50.328;8.720;2023-06-22T03:56:35;99748.31;;;27.53;46.11
14383;BME280;7275;50.328;8.720;2023-06-22T03:59:03;99750.84;;;27.54;46.08
14383;BME280;7275;50.328;8.720;2023-06-22T04:01:32;99746.28;;;27.55;46.00
14383;BME280;7275;50.328;8.720;2023-06-22T04:04:00;99745.25;;;27.56;46.27
14383;BME280;7275;50.328;8.720;2023-06-22T04:06:27;99752.22;;;27.58;46.27
14383;BME280;7275;50.328;8.720;2023-06-22T04:08:55;99758.50;;;27.59;46.19
14383;BME280;7275;50.328;8.720;2023-06-22T04:11:22;99761.91;;;27.61;46.15
14383;BME280;7275;50.328;8.720;2023-06-22T04:13:50;99758.03;;;27.63;45.99
14383;BME280;7275;50.328;8.720;2023-06-22T04:16:17;99760.38;;;27.66;46.25
14383;BME280;7275;50.328;8.720;2023-06-22T04:18:46;99748.34;;;27.69;46.01
14383;BME280;7275;50.328;8.720;2023-06-22T04:21:14;99756.31;;;27.70;46.00
14383;BME280;7275;50.328;8.720;2023-06-22T04:23:41;99764.34;;;27.72;45.86
14383;BME280;7275;50.328;8.720;2023-06-22T04:26:09;99762.44;;;27.73;45.95
14383;BME280;7275;50.328;8.720;2023-06-22T04:28:37;99765.16;;;27.73;45.99
14383;BME280;7275;50.328;8.720;2023-06-22T04:31:04;99768.75;;;27.73;46.01
14383;BME280;7275;50.328;8.720;2023-06-22T04:33:32;99764.00;;;27.75;46.52
14383;BME280;7275;50.328;8.720;2023-06-22T04:36:01;99762.66;;;27.79;46.26
14383;BME280;7275;50.328;8.720;2023-06-22T04:38:30;99770.31;;;27.84;46.56
14383;BME280;7275;50.328;8.720;2023-06-22T04:40:59;99780.00;;;27.86;46.56
14383;BME280;7275;50.328;8.720;2023-06-22T04:43:28;99784.41;;;27.87;46.60
14383;BME280;7275;50.328;8.720;2023-06-22T04:45:56;99783.41;;;27.88;46.27
14383;BME280;7275;50.328;8.720;2023-06-22T04:48:30;99785.09;;;27.89;46.10
14383;BME280;7275;50.328;8.720;2023-06-22T04:51:01;99787.66;;;27.91;46.09
14383;BME280;7275;50.328;8.720;2023-06-22T04:53:30;99788.00;;;27.96;46.63
14383;BME280;7275;50.328;8.720;2023-06-22T04:55:58;99793.16;;;27.99;46.09
14383;BME280;7275;50.328;8.720;2023-06-22T04:58:26;99791.13;;;28.01;46.14
14383;BME280;7275;50.328;8.720;2023-06-22T05:00:55;99792.66;;;28.03;46.47
14383;BME280;7275;50.328;8.720;2023-06-22T05:03:24;99785.19;;;28.05;46.10
14383;BME280;7275;50.328;8.720;2023-06-22T05:05:53;99785.88;;;28.07;46.07
14383;BME280;7275;50.328;8.720;2023-06-22T05:08:22;99793.53;;;28.12;46.22
14383;BME280;7275;50.328;8.720;2023-06-22T05:10:52;99785.22;;;28.13;46.50
14383;BME280;7275;50.328;8.720;2023-06-22T05:13:31;99782.00;;;28.18;46.61
14383;BME280;7275;50.328;8.720;2023-06-22T05:15:58;99783.53;;;28.20;46.58
14383;BME280;7275;50.328;8.720;2023-06-22T05:18:29;99775.19;;;28.22;46.34
14383;BME280;7275;50.328;8.720;2023-06-22T05:20:57;99778.25;;;28.27;46.21
14383;BME280;7275;50.328;8.720;2023-06-22T05:23:27;99771.44;;;28.31;46.50
14383;BME280;7275;50.328;8.720;2023-06-22T05:25:54;99764.69;;;28.35;46.71
14383;BME280;7275;50.328;8.720;2023-06-22T05:28:41;99772.66;;;28.36;46.60
14383;BME280;7275;50.328;8.720;2023-06-22T05:31:13;99770.44;;;28.40;46.22
14383;BME280;7275;50.328;8.720;2023-06-22T05:33:58;99778.28;;;28.43;46.24
14383;BME280;7275;50.328;8.720;2023-06-22T05:36:26;99784.75;;;28.50;46.77
14383;BME280;7275;50.328;8.720;2023-06-22T05:38:56;99777.09;;;28.54;46.38
14383;BME280;7275;50.328;8.720;2023-06-22T05:41:23;99774.41;;;28.62;46.42
14383;BME280;7275;50.328;8.720;2023-06-22T05:43:51;99768.47;;;28.66;46.34
14383;BME280;7275;50.328;8.720;2023-06-22T05:46:19;99762.50;;;28.71;46.70
14383;BME280;7275;50.328;8.720;2023-06-22T05:48:46;99759.44;;;28.74;46.32
14383;BME280;7275;50.328;8.720;2023-06-22T05:51:14;99766.25;;;28.78;46.64
14383;BME280;7275;50.328;8.720;2023-06-22T05:53:41;99758.25;;;28.84;46.74
14383;BME280;7275;50.328;8.720;2023-06-22T05:56:12;99757.72;;;28.89;46.24
14383;BME280;7275;50.328;8.720;2023-06-22T05:58:39;99758.91;;;28.94;46.67
14383;BME280;7275;50.328;8.720;2023-06-22T06:01:07;99756.84;;;28.96;46.33
14383;BME280;7275;50.328;8.720;2023-06-22T06:03:34;99759.25;;;28.99;46.57
14383;BME280;7275;50.328;8.720;2023-06-22T06:06:07;99764.34;;;29.02;46.27
14383;BME280;7275;50.328;8.720;2023-06-22T06:08:34;99757.69;;;29.05;46.22
14383;BME280;7275;50.328;8.720;2023-06-22T06:11:02;99761.78;;;29.09;46.34
14383;BME280;7275;50.328;8.720;2023-06-22T06:13:31;99756.50;;;29.15;46.75
14383;BME280;7275;50.328;8.720;2023-06-22T06:15:58;99761.94;;;29.23;46.65
14383;BME280;7275;50.328;8.720;2023-06-22T06:18:27;99761.06;;;29.31;46.44
14383;BME280;7275;50.328;8.720;2023-06-22T06:20:54;99763.09;;;29.37;46.50
14383;BME280;7275;50.328;8.720;2023-06-22T06:23:22;99755.72;;;29.46;46.20
14383;BME280;7275;50.328;8.720;2023-06-22T06:25:50;99761.84;;;29.56;46.54
14383;BME280;7275;50.328;8.720;2023-06-22T06:28:17;99759.75;;;29.66;46.09
14383;BME280;7275;50.328;8.720;2023-06-22T06:30:46;99751.56;;;29.74;46.44
14383;BME280;7275;50.328;8.720;2023-06-22T06:33:14;99749.66;;;29.82;46.15
14383;BME280;7275;50.328;8.720;2023-06-22T06:35:41;99753.84;;;29.93;46.27
14383;BME280;7275;50.328;8.720;2023-06-22T06:38:09;99751.53;;;30.05;46.20
14383;BME280;7275;50.328;8.720;2023-06-22T06:40:37;99744.47;;;30.18;46.16
14383;BME280;7275;50.328;8.720;2023-06-22T06:43:04;99739.28;;;30.31;45.97
14383;BME280;7275;50.328;8.720;2023-06-22T06:45:32;99741.41;;;30.44;45.95
14383;BME280;7275;50.328;8.720;2023-06-22T06:48:02;99738.91;;;30.57;45.66
14383;BME280;7275;50.328;8.720;2023-06-22T06:50:30;99743.94;;;30.68;45.47
14383;BME280;7275;50.328;8.720;2023-06-22T06:52:58;99743.66;;;30.77;45.23
14383;BME280;7275;50.328;8.720;2023-06-22T06:55:26;99740.72;;;30.87;45.28
14383;BME280;7275;50.328;8.720;2023-06-22T06:57:59;99731.59;;;30.95;45.15
14383;BME280;7275;50.328;8.720;2023-06-22T07:00:27;99731.91;;;31.00;44.71
14383;BME280;7275;50.328;8.720;2023-06-22T07:02:58;99736.78;;;31.04;45.00
14383;BME280;7275;50.328;8.720;2023-06-22T07:05:26;99731.25;;;31.12;45.10
14383;BME280;7275;50.328;8.720;2023-06-22T07:07:54;99727.19;;;31.23;44.73
14383;BME280;7275;50.328;8.720;2023-06-22T07:10:21;99723.81;;;31.35;44.92
14383;BME280;7275;50.328;8.720;2023-06-22T07:12:49;99718.94;;;31.45;44.55
14383;BME280;7275;50.328;8.720;2023-06-22T07:15:16;99715.69;;;31.57;44.47
14383;BME280;7275;50.328;8.720;2023-06-22T07:17:44;99719.81;;;31.67;44.12
14383;BME280;7275;50.328;8.720;2023-06-22T07:20:12;99720.75;;;31.74;44.15
14383;BME280;7275;50.328;8.720;2023-06-22T07:22:42;99712.63;;;31.81;43.90
14383;BME280;7275;50.328;8.720;2023-06-22T07:25:11;99715.44;;;31.87;44.38
14383;BME280;7275;50.328;8.720;2023-06-22T07:27:44;99708.66;;;31.98;43.79
14383;BME280;7275;50.328;8.720;2023-06-22T07:30:12;99698.63;;;32.05;44.04
14383;BME280;7275;50.328;8.720;2023-06-22T07:32:40;99704.81;;;32.13;43.92
14383;BME280;7275;50.328;8.720;2023-06-22T07:35:08;99704.88;;;32.20;43.36
14383;BME280;7275;50.328;8.720;2023-06-22T07:37:37;99702.88;;;32.28;43.36
14383;BME280;7275;50.328;8.720;2023-06-22T07:40:07;99698.09;;;32.37;42.83
14383;BME280;7275;50.328;8.720;2023-06-22T07:42:35;99693.72;;;32.43;42.71
14383;BME280;7275;50.328;8.720;2023-06-22T07:45:03;99708.38;;;32.50;42.74
14383;BME280;7275;50.328;8.720;2023-06-22T07:47:32;99698.28;;;32.57;42.89
14383;BME280;7275;50.328;8.720;2023-06-22T07:50:02;99693.34;;;32.67;42.73
14383;BME280;7275;50.328;8.720;2023-06-22T07:52:30;99698.91;;;32.80;42.57
14383;BME280;7275;50.328;8.720;2023-06-22T07:54:58;99699.44;;;32.96;42.07
14383;BME280;7275;50.328;8.720;2023-06-22T07:57:27;99695.78;;;33.11;42.43
14383;BME280;7275;50.328;8.720;2023-06-22T08:00:00;99682.16;;;33.24;41.81
14383;BME280;7275;50.328;8.720;2023-06-22T08:02:30;99686.22;;;33.34;41.55
14383;BME280;7275;50.328;8.720;2023-06-22T08:04:57;99684.16;;;33.43;41.67
14383;BME280;7275;50.328;8.720;2023-06-22T08:07:41;99674.72;;;33.52;41.57
14383;BME280;7275;50.328;8.720;2023-06-22T08:10:13;99660.22;;;33.64;41.29
14383;BME280;7275;50.328;8.720;2023-06-22T08:12:42;99657.06;;;33.74;40.98
14383;BME280;7275;50.328;8.720;2023-06-22T08:15:10;99661.34;;;33.83;41.21
14383;BME280;7275;50.328;8.720;2023-06-22T08:17:38;99670.00;;;33.93;41.23
14383;BME280;7275;50.328;8.720;2023-06-22T08:20:07;99668.81;;;34.09;40.89
14383;BME280;7275;50.328;8.720;2023-06-22T08:22:38;99661.66;;;34.21;40.90
14383;BME280;7275;50.328;8.720;2023-06-22T08:25:07;99662.72;;;34.33;40.34
14383;BME280;7275;50.328;8.720;2023-06-22T08:27:35;99659.75;;;34.41;40.65
14383;BME280;7275;50.328;8.720;2023-06-22T08:30:05;99658.53;;;34.50;40.31
14383;BME280;7275;50.328;8.720;2023-06-22T08:32:33;99663.56;;;34.59;39.70
14383;BME280;7275;50.328;8.720;2023-06-22T08:35:01;99660.19;;;34.71;40.09
14383;BME280;7275;50.328;8.720;2023-06-22T08:37:28;99651.94;;;34.84;40.15
14383;BME280;7275;50.328;8.720;2023-06-22T08:39:58;99649.78;;;34.92;39.35
14383;BME280;7275;50.328;8.720;2023-06-22T08:42:27;99633.31;;;35.05;39.03
14383;BME280;7275;50.328;8.720;2023-06-22T08:44:55;99638.13;;;35.16;39.00
14383;BME280;7275;50.328;8.720;2023-06-22T08:47:24;99647.22;;;35.23;38.69
14383;BME280;7275;50.328;8.720;2023-06-22T08:49:52;99641.25;;;35.33;39.04
14383;BME280;7275;50.328;8.720;2023-06-22T08:52:19;99637.81;;;35.44;38.40
14383;BME280;7275;50.328;8.720;2023-06-22T08:54:47;99632.09;;;35.52;38.57
14383;BME280;7275;50.328;8.720;2023-06-22T08:57:15;99626.34;;;35.60;38.02
14383;BME280;7275;50.328;8.720;2023-06-22T08:59:42;99630.09;;;35.66;37.61
14383;BME280;7275;50.328;8.720;2023-06-22T09:02:10;99625.69;;;35.65;37.29
14383;BME280;7275;50.328;8.720;2023-06-22T09:04:39;99626.53;;;35.65;37.64
14383;BME280;7275;50.328;8.720;2023-06-22T09:07:08;99629.69;;;35.69;37.26
14383;BME280;7275;50.328;8.720;2023-06-22T09:09:35;99635.16;;;35.75;37.14
14383;BME280;7275;50.328;8.720;2023-06-22T09:12:03;99619.84;;;35.86;37.65
14383;BME280;7275;50.328;8.720;2023-06-22T09:14:31;99624.84;;;36.02;37.23
14383;BME280;7275;50.328;8.720;2023-06-22T09:16:59;99610.97;;;36.15;36.79
14383;BME280;7275;50.328;8.720;2023-06-22T09:19:26;99613.00;;;36.26;36.51
14383;BME280;7275;50.328;8.720;2023-06-22T09:21:55;99610.59;;;36.36;36.56
14383;BME280;7275;50.328;8.720;2023-06-22T09:24:23;99612.25;;;36.44;36.51
14383;BME280;7275;50.328;8.720;2023-06-22T09:26:51;99612.81;;;36.52;36.25
14383;BME280;7275;50.328;8.720;2023-06-22T09:29:18;99624.44;;;36.54;36.48
14383;BME280;7275;50.328;8.720;2023-06-22T09:31:46;99612.34;;;36.55;35.95
14383;BME280;7275;50.328;8.720;2023-06-22T09:34:13;99607.84;;;36.61;36.37
14383;BME280;7275;50.328;8.720;2023-06-22T09:36:41;99605.47;;;36.64;36.01
14383;BME280;7275;50.328;8.720;2023-06-22T09:39:10;99591.25;;;36.67;36.24
14383;BME280;7275;50.328;8.720;2023-06-22T09:41:37;99589.13;;;36.69;36.00
14383;BME280;7275;50.328;8.720;2023-06-22T09:44:05;99583.38;;;36.71;36.33
14383;BME280;7275;50.328;8.720;2023-06-22T09:46:32;99577.38;;;36.74;36.04
14383;BME280;7275;50.328;8.720;2023-06-22T09:49:00;99580.91;;;36.81;35.96
14383;BME280;7275;50.328;8.720;2023-06-22T09:51:27;99586.75;;;36.91;35.69
14383;BME280;7275;50.328;8.720;2023-06-22T09:53:55;99589.22;;;36.99;35.89
14383;BME280;7275;50.328;8.720;2023-06-22T09:56:23;99571.38;;;37.02;35.74
14383;BME280;7275;50.328;8.720;2023-06-22T09:58:54;99567.69;;;37.08;35.58
14383;BME280;7275;50.328;8.720;2023-06-22T10:01:39;99559.25;;;37.21;35.25
14383;BME280;7275;50.328;8.720;2023-06-22T10:04:06;99564.44;;;37.29;34.91
14383;BME280;7275;50.328;8.720;2023-06-22T10:06:34;99555.72;;;37.32;35.32
14383;BME280;7275;50.328;8.720;2023-06-22T10:09:02;99553.97;;;37.37;34.95
14383;BME280;7275;50.328;8.720;2023-06-22T10:11:31;99553.88;;;37.44;34.57
14383;BME280;7275;50.328;8.720;2023-06-22T10:14:01;99559.66;;;37.54;34.25
14383;BME280;7275;50.328;8.720;2023-06-22T10:16:31;99546.13;;;37.64;34.05
14383;BME280;7275;50.328;8.720;2023-06-22T10:18:59;99545.34;;;37.75;34.09
14383;BME280;7275;50.328;8.720;2023-06-22T10:21:27;99544.66;;;37.80;33.55
14383;BME280;7275;50.328;8.720;2023-06-22T10:23:55;99532.78;;;37.79;33.42
14383;BME280;7275;50.328;8.720;2023-06-22T10:26:22;99540.59;;;37.82;33.92
14383;BME280;7275;50.328;8.720;2023-06-22T10:28:51;99534.22;;;37.82;33.38
14383;BME280;7275;50.328;8.720;2023-06-22T10:31:39;99532.59;;;37.74;33.38
14383;BME280;7275;50.328;8.720;2023-06-22T10:34:06;99524.56;;;37.73;33.53
14383;BME280;7275;50.328;8.720;2023-06-22T10:36:34;99517.75;;;37.75;33.42
14383;BME280;7275;50.328;8.720;2023-06-22T10:39:01;99508.78;;;37.80;33.45
14383;BME280;7275;50.328;8.720;2023-06-22T10:41:29;99504.22;;;37.85;32.97
14383;BME280;7275;50.328;8.720;2023-06-22T10:43:58;99500.50;;;37.91;33.26
14383;BME280;7275;50.328;8.720;2023-06-22T10:46:26;99496.06;;;38.02;33.16
14383;BME280;7275;50.328;8.720;2023-06-22T10:48:54;99494.03;;;38.09;32.80
14383;BME280;7275;50.328;8.720;2023-06-22T10:51:23;99499.31;;;38.10;32.35
14383;BME280;7275;50.328;8.720;2023-06-22T10:53:50;99493.34;;;38.13;32.44
14383;BME280;7275;50.328;8.720;2023-06-22T10:56:18;99483.22;;;38.19;32.58
14383;BME280;7275;50.328;8.720;2023-06-22T10:58:46;99486.84;;;38.19;32.32
14383;BME280;7275;50.328;8.720;2023-06-22T11:01:14;99483.59;;;38.22;32.01
14383;BME280;7275;50.328;8.720;2023-06-22T11:04:02;99471.94;;;38.20;32.15
14383;BME280;7275;50.328;8.720;2023-06-22T11:06:30;99463.03;;;38.18;31.91
14383;BME280;7275;50.328;8.720;2023-06-22T11:08:58;99455.59;;;38.19;31.71
14383;BME280;7275;50.328;8.720;2023-06-22T11:11:28;99436.53;;;38.17;31.76
14383;BME280;7275;50.328;8.720;2023-06-22T11:13:56;99441.78;;;38.19;31.88
14383;BME280;7275;50.328;8.720;2023-06-22T11:16:25;99440.47;;;38.21;31.34
14383;BME280;7275;50.328;8.720;2023-06-22T11:18:52;99438.44;;;38.28;31.63
14383;BME280;7275;50.328;8.720;2023-06-22T11:21:20;99432.06;;;38.39;31.10
14383;BME280;7275;50.328;8.720;2023-06-22T11:23:47;99429.50;;;38.50;30.99
14383;BME280;7275;50.328;8.720;2023-06-22T11:26:15;99412.56;;;38.58;30.73
14383;BME280;7275;50.328;8.720;2023-06-22T11:28:42;99403.78;;;38.61;30.54
14383;BME280;7275;50.328;8.720;2023-06-22T11:31:10;99401.13;;;38.66;30.88
14383;BME280;7275;50.328;8.720;2023-06-22T11:33:53;99400.78;;;38.74;30.07
14383;BME280;7275;50.328;8.720;2023-06-22T11:36:21;99396.44;;;38.78;30.40
14383;BME280;7275;50.328;8.720;2023-06-22T11:38:48;99387.03;;;38.79;30.31
14383;BME280;7275;50.328;8.720;2023-06-22T11:41:16;99385.31;;;38.89;29.91
14383;BME280;7275;50.328;8.720;2023-06-22T11:43:43;99370.59;;;39.00;30.09
14383;BME280;7275;50.328;8.720;2023-06-22T11:46:11;99380.78;;;39.11;29.69
14383;BME280;7275;50.328;8.720;2023-06-22T11:48:38;99387.81;;;39.19;29.93
14383;BME280;7275;50.328;8.720;2023-06-22T11:51:07;99385.75;;;39.26;29.98
14383;BME280;7275;50.328;8.720;2023-06-22T11:53:35;99381.47;;;39.35;29.45
14383;BME280;7275;50.328;8.720;2023-06-22T11:56:03;99374.16;;;39.46;29.25
14383;BME280;7275;50.328;8.720;2023-06-22T11:58:30;99378.94;;;39.50;29.42
14383;BME280;7275;50.328;8.720;2023-06-22T12:00:58;99373.69;;;39.49;28.95
14383;BME280;7275;50.328;8.720;2023-06-22T12:03:25;99366.72;;;39.46;29.16
14383;BME280;7275;50.328;8.720;2023-06-22T12:05:53;99367.47;;;39.42;28.88
14383;BME280;7275;50.328;8.720;2023-06-22T12:08:22;99363.34;;;39.44;28.72
14383;BME280;7275;50.328;8.720;2023-06-22T12:10:50;99362.19;;;39.40;29.06
14383;BME280;7275;50.328;8.720;2023-06-22T12:13:18;99363.78;;;39.36;28.86
14383;BME280;7275;50.328;8.720;2023-06-22T12:15:45;99353.19;;;39.33;28.79
14383;BME280;7275;50.328;8.720;2023-06-22T12:18:13;99347.66;;;39.33;29.09
14383;BME280;7275;50.328;8.720;2023-06-22T12:20:41;99343.88;;;39.39;29.10
14383;BME280;7275;50.328;8.720;2023-06-22T12:23:08;99347.66;;;39.50;29.31
14383;BME280;7275;50.328;8.720;2023-06-22T12:25:37;99339.31;;;39.61;29.04
14383;BME280;7275;50.328;8.720;2023-06-22T12:28:05;99343.56;;;39.69;29.10
14383;BME280;7275;50.328;8.720;2023-06-22T12:30:33;99333.47;;;39.79;29.24
14383;BME280;7275;50.328;8.720;2023-06-22T12:33:00;99331.78;;;39.95;28.76
14383;BME280;7275;50.328;8.720;2023-06-22T12:35:28;99317.91;;;40.12;29.00
14383;BME280;7275;50.328;8.720;2023-06-22T12:37:55;99317.84;;;40.28;28.96
14383;BME280;7275;50.328;8.720;2023-06-22T12:40:24;99315.03;;;40.45;28.54
14383;BME280;7275;50.328;8.720;2023-06-22T12:42:53;99312.38;;;40.60;27.57
14383;BME280;7275;50.328;8.720;2023-06-22T12:45:20;99310.00;;;40.68;27.61
14383;BME280;7275;50.328;8.720;2023-06-22T12:47:48;99310.91;;;40.74;27.26
14383;BME280;7275;50.328;8.720;2023-06-22T12:50:16;99313.59;;;40.69;27.46
14383;BME280;7275;50.328;8.720;2023-06-22T12:52:43;99314.72;;;40.68;27.57
14383;BME280;7275;50.328;8.720;2023-06-22T12:55:11;99326.44;;;40.75;27.32
14383;BME280;7275;50.328;8.720;2023-06-22T12:57:38;99322.56;;;40.76;27.13
14383;BME280;7275;50.328;8.720;2023-06-22T13:00:09;99326.72;;;40.79;27.44
14383;BME280;7275;50.328;8.720;2023-06-22T13:02:37;99312.88;;;40.79;27.34
14383;BME280;7275;50.328;8.720;2023-06-22T13:05:05;99298.25;;;40.83;27.21
14383;BME280;7275;50.328;8.720;2023-06-22T13:07:33;99299.66;;;40.86;27.46
14383;BME280;7275;50.328;8.720;2023-06-22T13:10:00;99301.28;;;40.82;27.06
14383;BME280;7275;50.328;8.720;2023-06-22T13:12:28;99289.34;;;40.81;27.08
14383;BME280;7275;50.328;8.720;2023-06-22T13:14:55;99281.09;;;40.86;27.26
14383;BME280;7275;50.328;8.720;2023-06-22T13:17:24;99283.66;;;40.93;27.31